sensor_id;sensor_type;location;lat;lon;timestamp;pressure;altitude;pressure_sealevel;temperature;humidity
23253;BME280;11795;47.054;15.408;2024-01-30T00:00:08;99320;;;-0.8;73.7
23253;BME280;11795;47.054;15.408;2024-01-30T00:02:08;99320;;;-0.7;73.5
23253;BME280;11795;47.054;15.408;2024-01-30T00:04:08;99320;;;-0.8;73.8
23253;BME280;11795;47.054;15.408;2024-01-30T00:06:08;99320;;;-0.7;73.7
23253;BME280;11795;47.054;15.408;2024-01-30T00:08:08;99320;;;-0.9;74.4
23253;BME280;11795;47.054;15.408;2024-01-30T00:10:10;99320;;;-0.9;74.6
23253;BME280;11795;47.054;15.408;2024-01-30T00:12:08;99320;;;-0.8;73.9
23253;BME280;11795;47.054;15.408;2024-01-30T00:14:08;99310;;;-0.9;74.4
23253;BME280;11795;47.054;15.408;2024-01-30T00:16:08;99310;;;-0.8;74.2
23253;BME280;11795;47.054;15.408;2024-01-30T00:18:08;99320;;;-1.0;74.5
23253;BME280;11795;47.054;15.408;2024-01-30T00:20:10;99320;;;-1.0;74.8
23253;BME280;11795;47.054;15.408;2024-01-30T00:22:08;99310;;;-0.9;74.5
23253;BME280;11795;47.054;15.408;2024-01-30T00:24:08;99310;;;-1.0;74.8
23253;BME280;11795;47.054;15.408;2024-01-30T00:26:09;99310;;;-0.9;74.4
23253;BME280;11795;47.054;15.408;2024-01-30T00:28:08;99310;;;-1.1;74.7
23253;BME280;11795;47.054;15.408;2024-01-30T00:30:10;99320;;;-1.1;75.2
23253;BME280;11795;47.054;15.408;2024-01-30T00:32:08;99320;;;-1.0;74.8
23253;BME280;11795;47.054;15.408;2024-01-30T00:34:08;99320;;;-1.1;75.3
23253;BME280;11795;47.054;15.408;2024-01-30T00:36:09;99320;;;-0.9;75.1
23253;BME280;11795;47.054;15.408;2024-01-30T00:38:08;99330;;;-1.0;74.9
23253;BME280;11795;47.054;15.408;2024-01-30T00:40:10;99330;;;-1.0;74.8
23253;BME280;11795;47.054;15.408;2024-01-30T00:42:08;99330;;;-0.9;73.8
23253;BME280;11795;47.054;15.408;2024-01-30T00:44:08;99330;;;-1.1;74.2
23253;BME280;11795;47.054;15.408;2024-01-30T00:46:08;99330;;;-1.0;74.0
23253;BME280;11795;47.054;15.408;2024-01-30T00:48:08;99330;;;-1.2;74.6
23253;BME280;11795;47.054;15.408;2024-01-30T00:50:09;99330;;;-1.3;75.0
23253;BME280;11795;47.054;15.408;2024-01-30T00:52:08;99330;;;-1.2;74.7
23253;BME280;11795;47.054;15.408;2024-01-30T00:54:10;99330;;;-1.2;75.4
23253;BME280;11795;47.054;15.408;2024-01-30T00:56:08;99320;;;-1.1;75.3
23253;BME280;11795;47.054;15.408;2024-01-30T00:58:08;99320;;;-1.2;75.7
23253;BME280;11795;47.054;15.408;2024-01-30T01:00:11;99320;;;-1.3;76.1
23253;BME280;11795;47.054;15.408;2024-01-30T01:02:08;99320;;;-1.2;75.3
23253;BME280;11795;47.054;15.408;2024-01-30T01:04:08;99320;;;-1.3;75.2
23253;BME280;11795;47.054;15.408;2024-01-30T01:06:08;99320;;;-1.2;74.9
23253;BME280;11795;47.054;15.408;2024-01-30T01:08:08;99320;;;-1.4;75.3
23253;BME280;11795;47.054;15.408;2024-01-30T01:10:08;99310;;;-1.5;75.9
23253;BME280;11795;47.054;15.408;2024-01-30T01:12:08;99310;;;-1.4;75.6
23253;BME280;11795;47.054;15.408;2024-01-30T01:14:08;99310;;;-1.4;75.8
23253;BME280;11795;47.054;15.408;2024-01-30T01:16:08;99320;;;-1.3;75.4
23253;BME280;11795;47.054;15.408;2024-01-30T01:18:08;99310;;;-1.5;75.7
23253;BME280;11795;47.054;15.408;2024-01-30T01:20:11;99310;;;-1.5;76.1
23253;BME280;11795;47.054;15.408;2024-01-30T01:22:08;99310;;;-1.5;75.7
23253;BME280;11795;47.054;15.408;2024-01-30T01:24:08;99320;;;-1.6;76.0
23253;BME280;11795;47.054;15.408;2024-01-30T01:26:08;99310;;;-1.5;75.8
23253;BME280;11795;47.054;15.408;2024-01-30T01:28:08;99310;;;-1.6;76.2
23253;BME280;11795;47.054;15.408;2024-01-30T01:30:10;99310;;;-1.7;76.6
23253;BME280;11795;47.054;15.408;2024-01-30T01:32:08;99310;;;-1.6;76.3
23253;BME280;11795;47.054;15.408;2024-01-30T01:34:08;99300;;;-1.6;76.7
23253;BME280;11795;47.054;15.408;2024-01-30T01:36:08;99290;;;-1.5;76.3
23253;BME280;11795;47.054;15.408;2024-01-30T01:38:09;99300;;;-1.6;76.6
23253;BME280;11795;47.054;15.408;2024-01-30T01:40:09;99290;;;-1.7;76.8
23253;BME280;11795;47.054;15.408;2024-01-30T01:42:08;99300;;;-1.6;76.5
23253;BME280;11795;47.054;15.408;2024-01-30T01:44:09;99300;;;-1.7;77.0
23253;BME280;11795;47.054;15.408;2024-01-30T01:46:08;99300;;;-1.5;76.8
23253;BME280;11795;47.054;15.408;2024-01-30T01:48:08;99300;;;-1.7;77.2
23253;BME280;11795;47.054;15.408;2024-01-30T01:50:08;99300;;;-1.8;77.4
23253;BME280;11795;47.054;15.408;2024-01-30T01:52:09;99300;;;-1.6;77.0
23253;BME280;11795;47.054;15.408;2024-01-30T01:54:08;99310;;;-1.6;76.6
23253;BME280;11795;47.054;15.408;2024-01-30T01:56:08;99300;;;-1.5;75.9
23253;BME280;11795;47.054;15.408;2024-01-30T01:58:09;99300;;;-1.7;76.5
23253;BME280;11795;47.054;15.408;2024-01-30T02:00:10;99300;;;-1.8;76.9
23253;BME280;11795;47.054;15.408;2024-01-30T02:02:11;99300;;;-1.7;76.6
23253;BME280;11795;47.054;15.408;2024-01-30T02:04:09;99300;;;-1.8;76.8
23253;BME280;11795;47.054;15.408;2024-01-30T02:06:09;99300;;;-1.6;76.2
23253;BME280;11795;47.054;15.408;2024-01-30T02:08:08;99300;;;-1.7;76.3
23253;BME280;11795;47.054;15.408;2024-01-30T02:10:08;99300;;;-1.8;76.6
23253;BME280;11795;47.054;15.408;2024-01-30T02:12:08;99290;;;-1.8;76.4
23253;BME280;11795;47.054;15.408;2024-01-30T02:14:08;99290;;;-1.9;77.1
23253;BME280;11795;47.054;15.408;2024-01-30T02:16:08;99290;;;-1.8;77.1
23253;BME280;11795;47.054;15.408;2024-01-30T02:18:08;99300;;;-1.9;77.3
23253;BME280;11795;47.054;15.408;2024-01-30T02:20:09;99300;;;-1.9;77.5
23253;BME280;11795;47.054;15.408;2024-01-30T02:22:09;99300;;;-1.8;77.1
23253;BME280;11795;47.054;15.408;2024-01-30T02:24:09;99290;;;-1.9;77.3
23253;BME280;11795;47.054;15.408;2024-01-30T02:26:08;99290;;;-1.8;76.9
23253;BME280;11795;47.054;15.408;2024-01-30T02:28:08;99290;;;-1.9;77.2
23253;BME280;11795;47.054;15.408;2024-01-30T02:30:09;99290;;;-2.0;77.6
23253;BME280;11795;47.054;15.408;2024-01-30T02:32:08;99290;;;-1.9;77.2
23253;BME280;11795;47.054;15.408;2024-01-30T02:34:08;99290;;;-2.0;77.7
23253;BME280;11795;47.054;15.408;2024-01-30T02:36:08;99290;;;-1.9;77.1
23253;BME280;11795;47.054;15.408;2024-01-30T02:38:08;99290;;;-2.0;77.0
23253;BME280;11795;47.054;15.408;2024-01-30T02:40:08;99290;;;-2.1;77.4
23253;BME280;11795;47.054;15.408;2024-01-30T02:42:08;99290;;;-2.0;77.2
23253;BME280;11795;47.054;15.408;2024-01-30T02:44:08;99290;;;-2.1;77.7
23253;BME280;11795;47.054;15.408;2024-01-30T02:46:08;99290;;;-2.0;77.5
23253;BME280;11795;47.054;15.408;2024-01-30T02:48:08;99290;;;-2.1;78.1
23253;BME280;11795;47.054;15.408;2024-01-30T02:50:09;99300;;;-2.1;78.2
23253;BME280;11795;47.054;15.408;2024-01-30T02:52:08;99300;;;-2.0;78.1
23253;BME280;11795;47.054;15.408;2024-01-30T02:54:08;99290;;;-2.2;78.7
23253;BME280;11795;47.054;15.408;2024-01-30T02:56:09;99290;;;-1.9;78.4
23253;BME280;11795;47.054;15.408;2024-01-30T02:58:08;99290;;;-2.2;79.2
23253;BME280;11795;47.054;15.408;2024-01-30T03:00:11;99290;;;-2.3;79.8
23253;BME280;11795;47.054;15.408;2024-01-30T03:02:08;99290;;;-2.1;79.3
23253;BME280;11795;47.054;15.408;2024-01-30T03:04:08;99290;;;-2.2;79.7
23253;BME280;11795;47.054;15.408;2024-01-30T03:06:08;99290;;;-2.1;79.8
23253;BME280;11795;47.054;15.408;2024-01-30T03:08:08;99290;;;-2.3;80.0
23253;BME280;11795;47.054;15.408;2024-01-30T03:10:09;99290;;;-2.4;80.3
23253;BME280;11795;47.054;15.408;2024-01-30T03:12:08;99290;;;-2.3;79.9
23253;BME280;11795;47.054;15.408;2024-01-30T03:14:08;99280;;;-2.5;80.3
23253;BME280;11795;47.054;15.408;2024-01-30T03:16:08;99280;;;-2.2;79.7
23253;BME280;11795;47.054;15.408;2024-01-30T03:18:08;99280;;;-2.4;79.7
23253;BME280;11795;47.054;15.408;2024-01-30T03:20:10;99280;;;-2.5;80.0
23253;BME280;11795;47.054;15.408;2024-01-30T03:22:08;99280;;;-2.4;79.7
23253;BME280;11795;47.054;15.408;2024-01-30T03:24:08;99280;;;-2.5;80.0
23253;BME280;11795;47.054;15.408;2024-01-30T03:26:11;99280;;;-2.4;79.9
23253;BME280;11795;47.054;15.408;2024-01-30T03:28:08;99280;;;-2.5;80.0
23253;BME280;11795;47.054;15.408;2024-01-30T03:30:09;99280;;;-2.5;80.3
23253;BME280;11795;47.054;15.408;2024-01-30T03:32:08;99270;;;-2.4;79.9
23253;BME280;11795;47.054;15.408;2024-01-30T03:34:08;99270;;;-2.5;80.1
23253;BME280;11795;47.054;15.408;2024-01-30T03:36:09;99270;;;-2.4;79.6
23253;BME280;11795;47.054;15.408;2024-01-30T03:38:08;99280;;;-2.6;79.6
23253;BME280;11795;47.054;15.408;2024-01-30T03:40:08;99270;;;-2.7;79.9
23253;BME280;11795;47.054;15.408;2024-01-30T03:42:08;99270;;;-2.6;79.6
23253;BME280;11795;47.054;15.408;2024-01-30T03:44:08;99270;;;-2.7;80.0
23253;BME280;11795;47.054;15.408;2024-01-30T03:46:08;99280;;;-2.6;79.9
23253;BME280;11795;47.054;15.408;2024-01-30T03:48:08;99270;;;-2.7;80.0
23253;BME280;11795;47.054;15.408;2024-01-30T03:50:09;99280;;;-2.7;80.2
23253;BME280;11795;47.054;15.408;2024-01-30T03:52:09;99270;;;-2.6;79.9
23253;BME280;11795;47.054;15.408;2024-01-30T03:54:08;99280;;;-2.7;80.2
23253;BME280;11795;47.054;15.408;2024-01-30T03:56:08;99280;;;-2.6;80.1
23253;BME280;11795;47.054;15.408;2024-01-30T03:58:08;99280;;;-2.7;80.2
23253;BME280;11795;47.054;15.408;2024-01-30T04:00:10;99280;;;-2.7;80.4
23253;BME280;11795;47.054;15.408;2024-01-30T04:02:09;99280;;;-2.7;80.0
23253;BME280;11795;47.054;15.408;2024-01-30T04:04:08;99280;;;-2.7;80.2
23253;BME280;11795;47.054;15.408;2024-01-30T04:06:08;99280;;;-2.5;79.4
23253;BME280;11795;47.054;15.408;2024-01-30T04:08:09;99280;;;-2.7;79.6
23253;BME280;11795;47.054;15.408;2024-01-30T04:10:10;99280;;;-2.7;79.7
23253;BME280;11795;47.054;15.408;2024-01-30T04:12:08;99280;;;-2.6;79.2
23253;BME280;11795;47.054;15.408;2024-01-30T04:14:08;99270;;;-2.6;78.9
23253;BME280;11795;47.054;15.408;2024-01-30T04:16:08;99280;;;-2.6;79.2
23253;BME280;11795;47.054;15.408;2024-01-30T04:18:08;99280;;;-2.7;79.5
23253;BME280;11795;47.054;15.408;2024-01-30T04:20:13;99280;;;-2.8;79.8
23253;BME280;11795;47.054;15.408;2024-01-30T04:22:08;99280;;;-2.7;79.6
23253;BME280;11795;47.054;15.408;2024-01-30T04:24:08;99280;;;-2.8;79.9
23253;BME280;11795;47.054;15.408;2024-01-30T04:26:08;99280;;;-2.7;79.8
23253;BME280;11795;47.054;15.408;2024-01-30T04:28:09;99280;;;-2.8;80.0
23253;BME280;11795;47.054;15.408;2024-01-30T04:30:09;99280;;;-2.9;80.3
23253;BME280;11795;47.054;15.408;2024-01-30T04:32:09;99280;;;-2.8;80.1
23253;BME280;11795;47.054;15.408;2024-01-30T04:34:08;99280;;;-2.9;80.4
23253;BME280;11795;47.054;15.408;2024-01-30T04:36:09;99280;;;-2.8;80.3
23253;BME280;11795;47.054;15.408;2024-01-30T04:38:08;99280;;;-2.9;80.5
23253;BME280;11795;47.054;15.408;2024-01-30T04:40:09;99280;;;-2.9;80.9
23253;BME280;11795;47.054;15.408;2024-01-30T04:42:09;99280;;;-2.8;80.6
23253;BME280;11795;47.054;15.408;2024-01-30T04:44:08;99280;;;-2.8;80.8
23253;BME280;11795;47.054;15.408;2024-01-30T04:46:08;99280;;;-2.7;80.7
23253;BME280;11795;47.054;15.408;2024-01-30T04:48:08;99280;;;-2.8;81.0
23253;BME280;11795;47.054;15.408;2024-01-30T04:50:09;99280;;;-2.8;81.2
23253;BME280;11795;47.054;15.408;2024-01-30T04:52:09;99280;;;-2.7;80.9
23253;BME280;11795;47.054;15.408;2024-01-30T04:54:08;99280;;;-2.8;81.2
23253;BME280;11795;47.054;15.408;2024-01-30T04:56:08;99280;;;-2.6;80.9
23253;BME280;11795;47.054;15.408;2024-01-30T04:58:08;99280;;;-2.7;81.0
23253;BME280;11795;47.054;15.408;2024-01-30T05:00:10;99280;;;-2.7;81.0
23253;BME280;11795;47.054;15.408;2024-01-30T05:02:08;99280;;;-2.7;80.4
23253;BME280;11795;47.054;15.408;2024-01-30T05:04:09;99280;;;-2.8;80.7
23253;BME280;11795;47.054;15.408;2024-01-30T05:06:08;99280;;;-2.6;80.5
23253;BME280;11795;47.054;15.408;2024-01-30T05:08:08;99280;;;-2.7;80.1
23253;BME280;11795;47.054;15.408;2024-01-30T05:10:09;99280;;;-2.8;80.3
23253;BME280;11795;47.054;15.408;2024-01-30T05:12:08;99280;;;-2.7;79.9
23253;BME280;11795;47.054;15.408;2024-01-30T05:14:08;99280;;;-2.8;80.2
23253;BME280;11795;47.054;15.408;2024-01-30T05:16:09;99280;;;-2.8;80.1
23253;BME280;11795;47.054;15.408;2024-01-30T05:18:08;99280;;;-2.9;80.3
23253;BME280;11795;47.054;15.408;2024-01-30T05:20:10;99280;;;-2.9;80.6
23253;BME280;11795;47.054;15.408;2024-01-30T05:22:09;99280;;;-2.8;80.4
23253;BME280;11795;47.054;15.408;2024-01-30T05:24:08;99290;;;-2.9;80.8
23253;BME280;11795;47.054;15.408;2024-01-30T05:28:08;99290;;;-2.8;80.8
23253;BME280;11795;47.054;15.408;2024-01-30T05:30:09;99290;;;-2.9;80.8
23253;BME280;11795;47.054;15.408;2024-01-30T05:32:09;99290;;;-2.8;80.0
23253;BME280;11795;47.054;15.408;2024-01-30T05:34:09;99290;;;-2.9;80.2
23253;BME280;11795;47.054;15.408;2024-01-30T05:36:11;99290;;;-2.8;80.0
23253;BME280;11795;47.054;15.408;2024-01-30T05:38:08;99290;;;-2.8;79.8
23253;BME280;11795;47.054;15.408;2024-01-30T05:40:10;99290;;;-2.9;79.9
23253;BME280;11795;47.054;15.408;2024-01-30T05:42:08;99290;;;-2.8;79.6
23253;BME280;11795;47.054;15.408;2024-01-30T05:44:09;99300;;;-2.8;79.7
23253;BME280;11795;47.054;15.408;2024-01-30T05:46:08;99300;;;-2.6;79.2
23253;BME280;11795;47.054;15.408;2024-01-30T05:48:08;99290;;;-2.7;79.2
23253;BME280;11795;47.054;15.408;2024-01-30T05:50:09;99290;;;-2.7;79.4
23253;BME280;11795;47.054;15.408;2024-01-30T05:52:08;99290;;;-2.7;79.3
23253;BME280;11795;47.054;15.408;2024-01-30T05:54:08;99290;;;-2.8;79.5
23253;BME280;11795;47.054;15.408;2024-01-30T05:56:08;99290;;;-2.7;79.2
23253;BME280;11795;47.054;15.408;2024-01-30T05:58:08;99300;;;-2.8;79.3
23253;BME280;11795;47.054;15.408;2024-01-30T06:00:09;99290;;;-3.0;79.6
23253;BME280;11795;47.054;15.408;2024-01-30T06:02:10;99290;;;-2.9;79.6
23253;BME280;11795;47.054;15.408;2024-01-30T06:04:08;99290;;;-3.0;79.9
23253;BME280;11795;47.054;15.408;2024-01-30T06:06:08;99290;;;-2.9;79.9
23253;BME280;11795;47.054;15.408;2024-01-30T06:08:08;99290;;;-3.0;79.9
23253;BME280;11795;47.054;15.408;2024-01-30T06:10:08;99290;;;-3.1;80.1
23253;BME280;11795;47.054;15.408;2024-01-30T06:12:09;99280;;;-3.0;79.9
23253;BME280;11795;47.054;15.408;2024-01-30T06:14:08;99280;;;-3.0;80.2
23253;BME280;11795;47.054;15.408;2024-01-30T06:16:10;99290;;;-2.9;80.0
23253;BME280;11795;47.054;15.408;2024-01-30T06:18:08;99280;;;-3.0;80.1
23253;BME280;11795;47.054;15.408;2024-01-30T06:20:09;99290;;;-3.0;80.3
23253;BME280;11795;47.054;15.408;2024-01-30T06:22:08;99280;;;-2.9;80.0
23253;BME280;11795;47.054;15.408;2024-01-30T06:24:09;99290;;;-2.9;80.2
23253;BME280;11795;47.054;15.408;2024-01-30T06:26:08;99290;;;-2.8;80.3
23253;BME280;11795;47.054;15.408;2024-01-30T06:28:08;99290;;;-2.9;80.5
23253;BME280;11795;47.054;15.408;2024-01-30T06:30:10;99290;;;-2.9;80.7
23253;BME280;11795;47.054;15.408;2024-01-30T06:32:09;99290;;;-2.8;80.5
23253;BME280;11795;47.054;15.408;2024-01-30T06:34:09;99290;;;-2.8;80.7
23253;BME280;11795;47.054;15.408;2024-01-30T06:36:09;99280;;;-2.7;80.5
23253;BME280;11795;47.054;15.408;2024-01-30T06:38:08;99290;;;-2.8;80.4
23253;BME280;11795;47.054;15.408;2024-01-30T06:40:10;99280;;;-2.8;80.5
23253;BME280;11795;47.054;15.408;2024-01-30T06:42:09;99280;;;-2.7;80.0
23253;BME280;11795;47.054;15.408;2024-01-30T06:44:10;99280;;;-2.8;80.2
23253;BME280;11795;47.054;15.408;2024-01-30T06:46:08;99290;;;-2.7;80.0
23253;BME280;11795;47.054;15.408;2024-01-30T06:48:08;99290;;;-2.8;80.1
23253;BME280;11795;47.054;15.408;2024-01-30T06:50:09;99290;;;-2.7;80.2
23253;BME280;11795;47.054;15.408;2024-01-30T06:52:09;99290;;;-2.6;79.8
23253;BME280;11795;47.054;15.408;2024-01-30T06:54:08;99290;;;-2.7;79.9
23253;BME280;11795;47.054;15.408;2024-01-30T06:56:08;99290;;;-2.4;79.0
23253;BME280;11795;47.054;15.408;2024-01-30T06:58:08;99300;;;-2.5;78.6
23253;BME280;11795;47.054;15.408;2024-01-30T07:00:09;99300;;;-2.5;78.4
23253;BME280;11795;47.054;15.408;2024-01-30T07:02:08;99300;;;-2.5;78.0
23253;BME280;11795;47.054;15.408;2024-01-30T07:04:08;99300;;;-2.6;78.5
23253;BME280;11795;47.054;15.408;2024-01-30T07:06:09;99300;;;-2.5;78.9
23253;BME280;11795;47.054;15.408;2024-01-30T07:08:08;99300;;;-2.5;79.0
23253;BME280;11795;47.054;15.408;2024-01-30T07:10:09;99300;;;-2.5;79.0
23253;BME280;11795;47.054;15.408;2024-01-30T07:12:09;99300;;;-2.3;78.6
23253;BME280;11795;47.054;15.408;2024-01-30T07:14:09;99300;;;-2.4;78.8
23253;BME280;11795;47.054;15.408;2024-01-30T07:16:08;99300;;;-2.2;78.5
23253;BME280;11795;47.054;15.408;2024-01-30T07:18:09;99300;;;-2.2;78.5
23253;BME280;11795;47.054;15.408;2024-01-30T07:20:09;99300;;;-2.2;78.5
23253;BME280;11795;47.054;15.408;2024-01-30T07:22:09;99300;;;-2.1;77.9
23253;BME280;11795;47.054;15.408;2024-01-30T07:24:08;99300;;;-2.1;78.2
23253;BME280;11795;47.054;15.408;2024-01-30T07:26:09;99300;;;-2.0;78.8
23253;BME280;11795;47.054;15.408;2024-01-30T07:28:10;99300;;;-2.1;79.0
23253;BME280;11795;47.054;15.408;2024-01-30T07:30:09;99310;;;-2.0;79.3
23253;BME280;11795;47.054;15.408;2024-01-30T07:32:09;99310;;;-1.9;79.0
23253;BME280;11795;47.054;15.408;2024-01-30T07:34:09;99310;;;-1.9;79.2
23253;BME280;11795;47.054;15.408;2024-01-30T07:36:09;99310;;;-1.7;78.9
23253;BME280;11795;47.054;15.408;2024-01-30T07:38:08;99310;;;-1.7;79.1
23253;BME280;11795;47.054;15.408;2024-01-30T07:40:09;99310;;;-1.7;79.1
23253;BME280;11795;47.054;15.408;2024-01-30T07:42:09;99310;;;-1.5;78.5
23253;BME280;11795;47.054;15.408;2024-01-30T07:44:09;99310;;;-1.6;78.6
23253;BME280;11795;47.054;15.408;2024-01-30T07:46:10;99310;;;-1.4;78.2
23253;BME280;11795;47.054;15.408;2024-01-30T07:48:09;99310;;;-1.5;78.2
23253;BME280;11795;47.054;15.408;2024-01-30T07:50:09;99310;;;-1.4;78.3
23253;BME280;11795;47.054;15.408;2024-01-30T07:52:09;99320;;;-1.3;77.8
23253;BME280;11795;47.054;15.408;2024-01-30T07:54:15;99320;;;-1.3;77.9
23253;BME280;11795;47.054;15.408;2024-01-30T07:56:08;99310;;;-1.2;77.6
23253;BME280;11795;47.054;15.408;2024-01-30T07:58:09;99320;;;-1.2;77.6
23253;BME280;11795;47.054;15.408;2024-01-30T08:00:10;99310;;;-1.2;77.6
23253;BME280;11795;47.054;15.408;2024-01-30T08:02:08;99310;;;-1.0;77.1
23253;BME280;11795;47.054;15.408;2024-01-30T08:04:09;99310;;;-0.9;77.2
23253;BME280;11795;47.054;15.408;2024-01-30T08:06:09;99310;;;-0.5;77.1
23253;BME280;11795;47.054;15.408;2024-01-30T08:08:09;99310;;;0.2;75.8
23253;BME280;11795;47.054;15.408;2024-01-30T08:10:11;99300;;;1.2;72.2
23253;BME280;11795;47.054;15.408;2024-01-30T08:12:09;99310;;;2.5;68.2
23253;BME280;11795;47.054;15.408;2024-01-30T08:14:08;99300;;;3.6;64.2
23253;BME280;11795;47.054;15.408;2024-01-30T08:16:08;99300;;;4.7;60.7
23253;BME280;11795;47.054;15.408;2024-01-30T08:18:15;99300;;;5.1;55.8
23253;BME280;11795;47.054;15.408;2024-01-30T08:20:09;99300;;;5.7;55.0
23253;BME280;11795;47.054;15.408;2024-01-30T08:22:08;99300;;;6.4;53.7
23253;BME280;11795;47.054;15.408;2024-01-30T08:24:08;99300;;;6.8;51.4
23253;BME280;11795;47.054;15.408;2024-01-30T08:26:08;99300;;;7.2;50.6
23253;BME280;11795;47.054;15.408;2024-01-30T08:28:08;99300;;;7.3;49.4
23253;BME280;11795;47.054;15.408;2024-01-30T08:30:09;99300;;;7.4;49.3
23253;BME280;11795;47.054;15.408;2024-01-30T08:32:08;99290;;;7.6;47.9
23253;BME280;11795;47.054;15.408;2024-01-30T08:34:08;99290;;;7.6;47.4
23253;BME280;11795;47.054;15.408;2024-01-30T08:36:08;99290;;;7.4;48.2
23253;BME280;11795;47.054;15.408;2024-01-30T08:38:09;99290;;;7.5;48.0
23253;BME280;11795;47.054;15.408;2024-01-30T08:40:09;99290;;;7.4;48.2
23253;BME280;11795;47.054;15.408;2024-01-30T08:42:08;99290;;;7.6;47.9
23253;BME280;11795;47.054;15.408;2024-01-30T08:44:08;99290;;;7.3;47.5
23253;BME280;11795;47.054;15.408;2024-01-30T08:46:16;99280;;;7.2;48.4
23253;BME280;11795;47.054;15.408;2024-01-30T08:48:09;99290;;;7.0;48.6
23253;BME280;11795;47.054;15.408;2024-01-30T08:50:09;99280;;;6.7;48.7
23253;BME280;11795;47.054;15.408;2024-01-30T08:52:08;99280;;;6.6;49.6
23253;BME280;11795;47.054;15.408;2024-01-30T08:54:08;99280;;;6.4;50.5
23253;BME280;11795;47.054;15.408;2024-01-30T08:56:08;99280;;;6.5;50.4
23253;BME280;11795;47.054;15.408;2024-01-30T08:58:09;99280;;;6.4;50.7
23253;BME280;11795;47.054;15.408;2024-01-30T09:00:11;99280;;;6.2;51.3
23253;BME280;11795;47.054;15.408;2024-01-30T09:02:09;99280;;;6.3;51.3
23253;BME280;11795;47.054;15.408;2024-01-30T09:04:08;99280;;;6.3;51.7
23253;BME280;11795;47.054;15.408;2024-01-30T09:06:09;99280;;;6.5;51.1
23253;BME280;11795;47.054;15.408;2024-01-30T09:08:08;99280;;;6.7;51.8
23253;BME280;11795;47.054;15.408;2024-01-30T09:10:09;99280;;;6.9;50.5
23253;BME280;11795;47.054;15.408;2024-01-30T09:12:11;99280;;;6.8;49.6
23253;BME280;11795;47.054;15.408;2024-01-30T09:14:08;99280;;;6.8;50.1
23253;BME280;11795;47.054;15.408;2024-01-30T09:16:08;99280;;;7.1;49.9
23253;BME280;11795;47.054;15.408;2024-01-30T09:18:13;99270;;;7.1;49.5
23253;BME280;11795;47.054;15.408;2024-01-30T09:20:09;99280;;;7.0;49.5
23253;BME280;11795;47.054;15.408;2024-01-30T09:22:08;99280;;;6.9;50.0
23253;BME280;11795;47.054;15.408;2024-01-30T09:24:08;99280;;;7.0;50.3
23253;BME280;11795;47.054;15.408;2024-01-30T09:26:08;99270;;;7.3;49.9
23253;BME280;11795;47.054;15.408;2024-01-30T09:28:08;99270;;;7.2;49.7
23253;BME280;11795;47.054;15.408;2024-01-30T09:30:09;99280;;;7.4;49.2
23253;BME280;11795;47.054;15.408;2024-01-30T09:32:08;99270;;;7.6;48.7
23253;BME280;11795;47.054;15.408;2024-01-30T09:34:08;99270;;;7.4;48.5
23253;BME280;11795;47.054;15.408;2024-01-30T09:36:08;99270;;;7.6;48.6
23253;BME280;11795;47.054;15.408;2024-01-30T09:38:08;99270;;;7.4;48.2
23253;BME280;11795;47.054;15.408;2024-01-30T09:40:14;99270;;;7.4;48.5
23253;BME280;11795;47.054;15.408;2024-01-30T09:42:15;99270;;;7.1;48.6
23253;BME280;11795;47.054;15.408;2024-01-30T09:44:08;99270;;;6.8;49.8
23253;BME280;11795;47.054;15.408;2024-01-30T09:46:11;99270;;;7.0;49.3
23253;BME280;11795;47.054;15.408;2024-01-30T09:48:08;99270;;;6.9;49.6
23253;BME280;11795;47.054;15.408;2024-01-30T09:50:11;99270;;;7.3;49.9
23253;BME280;11795;47.054;15.408;2024-01-30T09:52:09;99260;;;7.6;48.7
23253;BME280;11795;47.054;15.408;2024-01-30T09:54:09;99260;;;7.8;48.7
23253;BME280;11795;47.054;15.408;2024-01-30T09:56:08;99260;;;8.1;47.7
23253;BME280;11795;47.054;15.408;2024-01-30T09:58:08;99260;;;8.2;46.8
23253;BME280;11795;47.054;15.408;2024-01-30T10:00:09;99250;;;8.2;47.4
23253;BME280;11795;47.054;15.408;2024-01-30T10:02:08;99250;;;8.3;46.5
23253;BME280;11795;47.054;15.408;2024-01-30T10:04:09;99250;;;8.1;46.5
23253;BME280;11795;47.054;15.408;2024-01-30T10:06:09;99250;;;8.2;47.0
23253;BME280;11795;47.054;15.408;2024-01-30T10:08:09;99250;;;8.2;47.2
23253;BME280;11795;47.054;15.408;2024-01-30T10:10:09;99250;;;8.4;46.6
23253;BME280;11795;47.054;15.408;2024-01-30T10:12:09;99250;;;8.6;46.4
23253;BME280;11795;47.054;15.408;2024-01-30T10:14:09;99240;;;8.7;46.1
23253;BME280;11795;47.054;15.408;2024-01-30T10:16:13;99250;;;8.9;46.1
23253;BME280;11795;47.054;15.408;2024-01-30T10:18:11;99240;;;9.1;45.6
23253;BME280;11795;47.054;15.408;2024-01-30T10:20:09;99250;;;9.3;45.5
23253;BME280;11795;47.054;15.408;2024-01-30T10:22:09;99240;;;9.5;44.0
23253;BME280;11795;47.054;15.408;2024-01-30T10:24:10;99240;;;9.5;45.1
23253;BME280;11795;47.054;15.408;2024-01-30T10:26:09;99240;;;9.7;44.0
23253;BME280;11795;47.054;15.408;2024-01-30T10:28:09;99230;;;9.3;44.2
23253;BME280;11795;47.054;15.408;2024-01-30T10:30:09;99230;;;8.7;45.0
23253;BME280;11795;47.054;15.408;2024-01-30T10:32:08;99230;;;9.1;45.2
23253;BME280;11795;47.054;15.408;2024-01-30T10:34:08;99220;;;9.4;45.2
23253;BME280;11795;47.054;15.408;2024-01-30T10:36:09;99220;;;8.9;45.0
23253;BME280;11795;47.054;15.408;2024-01-30T10:38:09;99220;;;9.3;45.0
23253;BME280;11795;47.054;15.408;2024-01-30T10:40:13;99220;;;9.4;44.7
23253;BME280;11795;47.054;15.408;2024-01-30T10:42:11;99210;;;9.5;44.1
23253;BME280;11795;47.054;15.408;2024-01-30T10:44:09;99210;;;9.7;43.9
23253;BME280;11795;47.054;15.408;2024-01-30T10:46:12;99210;;;9.7;44.0
23253;BME280;11795;47.054;15.408;2024-01-30T10:48:09;99210;;;9.5;44.0
23253;BME280;11795;47.054;15.408;2024-01-30T10:50:09;99200;;;9.5;43.9
23253;BME280;11795;47.054;15.408;2024-01-30T10:52:10;99200;;;9.3;44.3
23253;BME280;11795;47.054;15.408;2024-01-30T10:54:09;99200;;;9.4;44.3
23253;BME280;11795;47.054;15.408;2024-01-30T10:56:10;99200;;;9.6;43.9
23253;BME280;11795;47.054;15.408;2024-01-30T10:58:09;99190;;;9.5;43.9
23253;BME280;11795;47.054;15.408;2024-01-30T11:00:10;99190;;;9.6;43.8
23253;BME280;11795;47.054;15.408;2024-01-30T11:02:09;99190;;;9.5;43.8
23253;BME280;11795;47.054;15.408;2024-01-30T11:04:09;99180;;;9.8;44.2
23253;BME280;11795;47.054;15.408;2024-01-30T11:06:10;99180;;;10.0;43.8
23253;BME280;11795;47.054;15.408;2024-01-30T11:08:12;99180;;;10.2;43.0
23253;BME280;11795;47.054;15.408;2024-01-30T11:10:09;99170;;;10.3;42.2
23253;BME280;11795;47.054;15.408;2024-01-30T11:12:12;99170;;;10.0;42.1
23253;BME280;11795;47.054;15.408;2024-01-30T11:14:09;99170;;;9.8;42.6